createdAt,value
2022-08-07T00:00:24.748Z,62.95
2022-08-07T00:02:51.155Z,63.09
2022-08-07T00:05:20.432Z,62.84
2022-08-07T00:07:46.953Z,62.86
2022-08-07T00:10:27.060Z,62.90
2022-08-07T00:13:00.572Z,62.81
2022-08-07T00:15:37.768Z,62.68
2022-08-07T00:18:19.514Z,62.48
2022-08-07T00:20:47.713Z,62.71
2022-08-07T00:23:14.935Z,62.94
2022-08-07T00:25:51.795Z,62.85
2022-08-07T00:28:25.786Z,62.87
2022-08-07T00:31:00.487Z,63.03
2022-08-07T00:33:28.435Z,62.97
2022-08-07T00:36:00.190Z,63.45
2022-08-07T00:38:31.720Z,63.82
2022-08-07T00:41:00.504Z,63.60
2022-08-07T00:43:59.195Z,63.84
2022-08-07T00:46:13.287Z,63.89
2022-08-07T00:48:41.998Z,63.91
2022-08-07T00:51:09.627Z,64.00
2022-08-07T00:53:39.175Z,64.25
2022-08-07T00:56:17.210Z,63.87
2022-08-07T00:58:46.729Z,63.75
2022-08-07T01:01:14.119Z,64.08
2022-08-07T01:03:56.283Z,64.11
2022-08-07T01:06:26.635Z,64.07
2022-08-07T01:08:56.329Z,63.92
2022-08-07T01:12:09.746Z,64.01
2022-08-07T01:14:11.364Z,64.15
2022-08-07T01:16:37.760Z,63.96
2022-08-07T01:19:05.053Z,64.01
2022-08-07T01:21:46.597Z,64.01
2022-08-07T01:24:14.029Z,63.87
2022-08-07T01:26:47.829Z,63.86
2022-08-07T01:29:14.473Z,64.01
2022-08-07T01:31:42.285Z,63.95
2022-08-07T01:34:14.247Z,64.01
2022-08-07T01:36:40.846Z,63.86
2022-08-07T01:39:10.204Z,63.90
2022-08-07T01:41:38.090Z,64.02
2022-08-07T01:44:05.407Z,63.94
2022-08-07T01:46:32.563Z,64.01
2022-08-07T01:48:59.946Z,63.88
2022-08-07T01:52:03.970Z,64.05
2022-08-07T01:54:33.018Z,63.81
2022-08-07T01:57:24.846Z,63.94
2022-08-07T02:00:13.474Z,63.96
2022-08-07T02:03:18.628Z,63.53
2022-08-07T02:05:47.602Z,63.85
2022-08-07T02:08:17.319Z,64.00
2022-08-07T02:10:44.676Z,63.70
2022-08-07T02:13:22.459Z,63.75
2022-08-07T02:16:11.846Z,63.79
2022-08-07T02:18:47.075Z,63.43
2022-08-07T02:21:16.337Z,63.66
2022-08-07T02:23:43.715Z,63.72
2022-08-07T02:26:33.960Z,63.58
2022-08-07T02:29:00.138Z,63.35
2022-08-07T02:31:28.883Z,63.17
2022-08-07T02:34:03.888Z,63.16
2022-08-07T02:36:32.924Z,62.91
2022-08-07T02:39:01.751Z,63.00
2022-08-07T02:41:37.425Z,62.82
2022-08-07T02:44:04.967Z,62.91
2022-08-07T02:46:33.543Z,62.71
2022-08-07T02:49:03.823Z,62.66
2022-08-07T02:51:49.975Z,62.62
2022-08-07T02:54:20.589Z,62.48
2022-08-07T02:56:52.419Z,62.50
2022-08-07T02:59:23.866Z,62.46
2022-08-07T03:01:55.458Z,62.41
2022-08-07T03:04:23.186Z,62.16
2022-08-07T03:06:52.396Z,62.60
2022-08-07T03:09:44.758Z,62.32
2022-08-07T03:12:08.062Z,62.25
2022-08-07T03:14:48.611Z,62.09
2022-08-07T03:17:19.498Z,62.02
2022-08-07T03:19:54.682Z,61.99
2022-08-07T03:22:22.501Z,62.01
2022-08-07T03:24:50.905Z,61.67
2022-08-07T03:27:30.347Z,61.89
2022-08-07T03:29:58.383Z,61.82
2022-08-07T03:32:26.915Z,61.74
2022-08-07T03:35:17.032Z,61.73
2022-08-07T03:37:53.344Z,61.65
2022-08-07T03:40:22.135Z,61.68
2022-08-07T03:42:49.965Z,61.65
2022-08-07T03:45:29.462Z,61.67
2022-08-07T03:47:57.803Z,62.15
2022-08-07T03:50:25.147Z,62.12
2022-08-07T03:52:56.278Z,62.51
2022-08-07T03:55:23.494Z,62.47
2022-08-07T03:59:05.643Z,62.55
2022-08-07T04:01:00.311Z,62.52
2022-08-07T04:03:27.058Z,62.71
2022-08-07T04:05:53.612Z,62.41
2022-08-07T04:08:25.971Z,62.66
2022-08-07T04:10:53.878Z,62.91
2022-08-07T04:14:32.961Z,62.83
2022-08-07T04:16:30.004Z,63.03
2022-08-07T04:19:03.744Z,63.01
2022-08-07T04:21:31.952Z,62.89
2022-08-07T04:24:01.986Z,62.98
2022-08-07T04:26:33.584Z,63.03
2022-08-07T04:28:59.967Z,63.04
2022-08-07T04:31:51.220Z,63.03
2022-08-07T04:34:16.649Z,62.91
2022-08-07T04:36:44.037Z,63.12
2022-08-07T04:39:12.184Z,62.73
2022-08-07T04:41:38.794Z,62.85
2022-08-07T04:44:12.655Z,62.94
2022-08-07T04:47:08.332Z,62.87
2022-08-07T04:49:57.987Z,62.70
2022-08-07T04:52:28.398Z,62.98
2022-08-07T04:55:01.665Z,62.78
2022-08-07T04:58:31.613Z,63.01
2022-08-07T05:00:51.604Z,62.82
2022-08-07T05:03:38.885Z,63.03
2022-08-07T05:06:19.807Z,62.77
2022-08-07T05:09:02.594Z,62.74
2022-08-07T05:11:58.576Z,63.02
2022-08-07T05:14:55.215Z,63.01
2022-08-07T05:17:12.223Z,62.57
2022-08-07T05:19:47.278Z,62.72
2022-08-07T05:22:26.507Z,62.76
2022-08-07T05:24:57.214Z,62.79
2022-08-07T05:28:03.202Z,62.53
2022-08-07T05:30:16.055Z,62.34
2022-08-07T05:32:57.666Z,62.43
2022-08-07T05:35:33.559Z,62.28
2022-08-07T05:38:09.931Z,62.42
2022-08-07T05:40:37.637Z,62.19
2022-08-07T05:43:17.802Z,62.10
2022-08-07T05:45:47.543Z,61.96
2022-08-07T05:48:14.709Z,62.06
2022-08-07T05:50:43.003Z,62.14
2022-08-07T05:54:13.827Z,62.09
2022-08-07T05:56:03.452Z,62.15
2022-08-07T05:58:36.902Z,61.97
2022-08-07T06:01:05.101Z,61.95
2022-08-07T06:03:53.886Z,61.90
2022-08-07T06:06:19.659Z,61.96
2022-08-07T06:08:47.123Z,62.27
2022-08-07T06:11:18.054Z,62.16
2022-08-07T06:14:12.958Z,62.13
2022-08-07T06:16:35.277Z,62.35
2022-08-07T06:19:03.296Z,62.54
2022-08-07T06:22:17.020Z,62.83
2022-08-07T06:24:52.715Z,62.37
2022-08-07T06:27:06.810Z,62.58
2022-08-07T06:29:34.514Z,62.54
2022-08-07T06:32:05.587Z,62.62
2022-08-07T06:34:31.984Z,62.58
2022-08-07T06:36:58.337Z,62.27
2022-08-07T06:40:16.831Z,62.22
2022-08-07T06:42:11.146Z,62.31
2022-08-07T06:44:39.898Z,62.47
2022-08-07T06:47:12.684Z,62.73
2022-08-07T06:49:51.702Z,63.19
2022-08-07T06:52:32.000Z,63.12
2022-08-07T06:55:32.303Z,63.02
2022-08-07T06:57:54.906Z,62.86
2022-08-07T07:00:23.840Z,63.04
2022-08-07T07:02:54.371Z,62.50
2022-08-07T07:06:03.104Z,62.88
2022-08-07T07:08:18.932Z,63.02
2022-08-07T07:10:56.587Z,62.83
2022-08-07T07:13:55.536Z,62.86
2022-08-07T07:16:19.560Z,62.62
2022-08-07T07:18:50.137Z,62.38
2022-08-07T07:21:22.169Z,62.37
2022-08-07T07:24:09.133Z,62.60
2022-08-07T07:26:39.753Z,62.47
2022-08-07T07:29:56.341Z,62.18
2022-08-07T07:32:01.822Z,62.25
2022-08-07T07:34:31.890Z,62.58
2022-08-07T07:37:14.364Z,62.17
2022-08-07T07:39:54.679Z,61.34
2022-08-07T07:42:32.428Z,61.69
2022-08-07T07:45:03.858Z,61.38
2022-08-07T07:47:52.114Z,61.05
2022-08-07T07:50:33.876Z,60.09
2022-08-07T07:53:05.717Z,60.37
2022-08-07T07:55:57.884Z,60.31
2022-08-07T07:58:29.468Z,60.42
2022-08-07T08:00:56.999Z,60.68
2022-08-07T08:04:10.773Z,61.24
2022-08-07T08:06:13.040Z,60.93
2022-08-07T08:08:41.946Z,60.98
2022-08-07T08:11:16.621Z,58.52
2022-08-07T08:13:55.996Z,59.57
2022-08-07T08:16:35.062Z,59.52
2022-08-07T08:19:17.440Z,60.27
2022-08-07T08:22:08.162Z,59.72
2022-08-07T08:25:04.433Z,60.11
2022-08-07T08:27:56.731Z,59.33
2022-08-07T08:30:29.097Z,60.79
2022-08-07T08:32:59.468Z,60.73
2022-08-07T08:35:28.902Z,60.20
2022-08-07T08:38:00.485Z,60.94
2022-08-07T08:40:31.994Z,60.99
2022-08-07T08:43:04.784Z,60.21
2022-08-07T08:45:41.886Z,60.03
2022-08-07T08:48:35.584Z,60.34
2022-08-07T08:51:14.247Z,58.96
2022-08-07T08:54:02.066Z,60.91
2022-08-07T08:56:36.023Z,60.37
2022-08-07T08:59:13.003Z,59.94
2022-08-07T09:02:01.662Z,59.46
2022-08-07T09:04:47.826Z,59.14
2022-08-07T09:07:23.068Z,60.17
2022-08-07T09:09:59.992Z,59.40
2022-08-07T09:12:30.762Z,59.57
2022-08-07T09:16:23.338Z,59.59
2022-08-07T09:18:13.449Z,60.53
2022-08-07T09:21:01.103Z,61.11
2022-08-07T09:24:30.793Z,61.61
2022-08-07T09:26:29.848Z,61.31
2022-08-07T09:30:07.072Z,61.81
2022-08-07T09:31:55.822Z,61.97
2022-08-07T09:34:28.302Z,61.90
2022-08-07T09:37:00.589Z,62.14
2022-08-07T09:39:53.589Z,61.52
2022-08-07T09:42:26.853Z,61.84
2022-08-07T09:47:24.464Z,62.40
2022-08-07T09:48:01.720Z,62.78
2022-08-07T09:50:43.783Z,62.63
2022-08-07T09:53:12.568Z,62.56
2022-08-07T09:56:04.702Z,63.01
2022-08-07T09:58:42.230Z,63.38
2022-08-07T10:01:50.628Z,63.40
2022-08-07T10:04:28.106Z,63.35
2022-08-07T10:07:05.088Z,63.50
2022-08-07T10:10:21.333Z,63.35
2022-08-07T10:12:57.495Z,63.48
2022-08-07T10:15:44.503Z,63.59
2022-08-07T10:18:11.937Z,63.22
2022-08-07T10:20:56.936Z,62.76
2022-08-07T10:24:05.380Z,62.78
2022-08-07T10:26:37.067Z,62.40
2022-08-07T10:29:19.115Z,62.20
2022-08-07T10:31:51.719Z,62.55
2022-08-07T10:34:27.314Z,61.81
2022-08-07T10:36:58.469Z,60.80
2022-08-07T10:39:57.588Z,61.40
2022-08-07T10:42:36.763Z,61.30
2022-08-07T10:45:09.943Z,61.22
2022-08-07T10:47:53.648Z,61.29
2022-08-07T10:50:34.148Z,60.73
2022-08-07T10:53:08.158Z,61.40
2022-08-07T10:55:44.147Z,61.66
2022-08-07T10:58:11.138Z,62.98
2022-08-07T11:01:12.263Z,63.10
2022-08-07T11:03:55.180Z,61.52
2022-08-07T11:06:44.716Z,56.77
2022-08-07T11:10:07.480Z,57.07
2022-08-07T11:12:31.564Z,56.05
2022-08-07T11:15:01.146Z,57.22
2022-08-07T11:17:43.327Z,55.80
2022-08-07T11:20:24.342Z,57.93
2022-08-07T11:23:11.240Z,55.46
2022-08-07T11:26:07.144Z,57.08
2022-08-07T11:28:36.022Z,58.88
2022-08-07T11:31:08.930Z,58.34
2022-08-07T11:33:54.331Z,57.58
2022-08-07T11:36:35.773Z,57.75
2022-08-07T11:39:23.333Z,56.44
2022-08-07T11:42:19.045Z,56.58
2022-08-07T11:44:52.508Z,58.52
2022-08-07T11:47:56.110Z,54.86
2022-08-07T11:50:44.644Z,53.33
2022-08-07T11:53:26.637Z,55.46
2022-08-07T11:56:15.609Z,55.72
2022-08-07T11:59:04.116Z,56.02
2022-08-07T12:01:59.628Z,55.26
2022-08-07T12:04:39.091Z,57.67
2022-08-07T12:07:27.902Z,58.63
2022-08-07T12:10:25.231Z,59.60
2022-08-07T12:12:57.131Z,59.85
2022-08-07T12:15:46.279Z,60.32
2022-08-07T12:18:22.353Z,59.19
2022-08-07T12:21:02.393Z,58.62
2022-08-07T12:23:37.329Z,57.26
2022-08-07T12:26:40.537Z,56.69
2022-08-07T12:29:38.003Z,56.69
2022-08-07T12:32:13.062Z,58.91
2022-08-07T12:34:40.807Z,58.80
2022-08-07T12:37:17.001Z,59.58
2022-08-07T12:39:51.675Z,59.67
2022-08-07T12:42:28.119Z,59.02
2022-08-07T12:44:56.156Z,58.85
2022-08-07T12:47:32.827Z,56.47
2022-08-07T12:50:39.104Z,57.11
2022-08-07T12:53:01.167Z,58.42
2022-08-07T12:55:40.754Z,58.00
2022-08-07T12:58:21.658Z,57.90
2022-08-07T13:01:13.638Z,58.46
2022-08-07T13:04:04.716Z,59.19
2022-08-07T13:06:54.183Z,58.92
2022-08-07T13:10:19.926Z,59.24
2022-08-07T13:12:47.488Z,58.72
2022-08-07T13:15:23.549Z,59.91
2022-08-07T13:18:08.717Z,60.94
2022-08-07T13:20:41.125Z,60.99
2022-08-07T13:24:01.469Z,61.02
2022-08-07T13:26:25.572Z,61.29
2022-08-07T13:28:57.939Z,60.55
2022-08-07T13:31:32.084Z,60.37
2022-08-07T13:34:33.313Z,60.57
2022-08-07T13:37:25.279Z,60.91
2022-08-07T13:40:35.388Z,61.49
2022-08-07T13:42:59.645Z,59.98
2022-08-07T13:46:11.754Z,57.80
2022-08-07T13:48:20.601Z,58.30
2022-08-07T13:51:02.191Z,58.48
2022-08-07T13:54:01.000Z,56.05
2022-08-07T13:56:36.119Z,58.80
2022-08-07T13:59:33.759Z,59.16
2022-08-07T14:02:12.715Z,60.19
2022-08-07T14:04:54.707Z,61.13
2022-08-07T14:07:23.610Z,61.77
2022-08-07T14:10:17.658Z,61.74
2022-08-07T14:12:54.944Z,61.58
2022-08-07T14:15:31.900Z,61.76
2022-08-07T14:18:28.730Z,61.93
2022-08-07T14:21:08.358Z,61.42
2022-08-07T14:24:00.304Z,59.41
2022-08-07T14:26:37.345Z,57.03
2022-08-07T14:30:02.821Z,58.49
2022-08-07T14:31:56.124Z,59.29
2022-08-07T14:34:29.294Z,60.13
2022-08-07T14:36:56.692Z,61.04
2022-08-07T14:40:14.554Z,60.83
2022-08-07T14:42:19.493Z,61.47
2022-08-07T14:44:52.338Z,61.60
2022-08-07T14:47:19.466Z,62.15
2022-08-07T14:49:57.478Z,61.88
2022-08-07T14:52:35.575Z,60.87
2022-08-07T14:55:02.778Z,61.17
2022-08-07T14:57:54.980Z,61.95
2022-08-07T15:00:20.741Z,62.69
2022-08-07T15:02:58.279Z,62.94
2022-08-07T15:05:26.754Z,62.60
2022-08-07T15:07:54.079Z,61.55
2022-08-07T15:10:26.049Z,60.57
2022-08-07T15:13:11.368Z,60.87
2022-08-07T15:15:53.615Z,62.25
2022-08-07T15:25:14.670Z,62.61
2022-08-07T15:27:05.977Z,62.54
2022-08-07T15:30:09.265Z,62.31
2022-08-07T15:32:39.202Z,61.81
2022-08-07T15:35:07.324Z,61.71
2022-08-07T15:38:17.796Z,61.47
2022-08-07T15:40:33.928Z,60.84
2022-08-07T15:43:53.357Z,60.68
2022-08-07T15:54:25.684Z,59.65
2022-08-07T15:56:56.512Z,60.03
2022-08-07T15:59:39.852Z,60.11
2022-08-07T16:02:15.268Z,59.88
2022-08-07T16:04:42.695Z,59.32
2022-08-07T16:08:30.792Z,58.17
2022-08-07T16:10:15.030Z,59.45
2022-08-07T16:13:04.770Z,58.11
2022-08-07T16:15:57.335Z,57.17
2022-08-07T16:18:49.984Z,55.63
2022-08-07T16:22:02.480Z,57.23
2022-08-07T16:24:34.329Z,57.81
2022-08-07T16:27:24.348Z,58.31
2022-08-07T16:30:09.805Z,59.06
2022-08-07T16:32:54.562Z,59.43
2022-08-07T16:35:58.320Z,59.58
2022-08-07T16:38:59.886Z,59.39
2022-08-07T16:41:54.441Z,57.39
2022-08-07T16:45:03.879Z,55.26
2022-08-07T16:50:35.866Z,56.04
2022-08-07T16:54:02.638Z,56.77
2022-08-07T16:56:20.634Z,57.46
2022-08-07T16:59:10.264Z,57.87
2022-08-07T17:01:36.362Z,58.07
2022-08-07T17:04:24.497Z,58.44
2022-08-07T17:07:03.001Z,59.06
2022-08-07T17:10:06.502Z,58.99
2022-08-07T17:12:37.783Z,59.52
2022-08-07T17:15:21.091Z,59.63
2022-08-07T17:17:47.927Z,59.76
2022-08-07T17:20:37.947Z,59.87
2022-08-07T17:23:16.863Z,60.00
2022-08-07T17:26:01.820Z,60.32
2022-08-07T17:28:35.251Z,60.46
2022-08-07T17:31:16.465Z,60.39
2022-08-07T17:34:15.274Z,60.35
2022-08-07T17:36:57.565Z,60.56
2022-08-07T17:39:57.741Z,60.69
2022-08-07T17:42:29.609Z,60.69
2022-08-07T17:44:58.557Z,60.64
2022-08-07T17:47:38.357Z,60.69
2022-08-07T17:50:19.011Z,60.59
2022-08-07T17:53:01.159Z,60.83
2022-08-07T17:56:01.026Z,60.97
2022-08-07T17:58:31.120Z,60.97
2022-08-07T18:00:59.304Z,61.22
2022-08-07T18:04:04.289Z,60.86
2022-08-07T18:06:38.460Z,60.80
2022-08-07T18:09:06.576Z,60.93
2022-08-07T18:12:16.404Z,61.11
2022-08-07T18:14:46.131Z,60.88
2022-08-07T18:18:36.488Z,61.25
2022-08-07T18:21:11.697Z,61.46
2022-08-07T18:23:42.326Z,61.45
2022-08-07T18:26:05.395Z,61.37
2022-08-07T18:29:03.984Z,61.52
2022-08-07T18:31:38.823Z,61.52
2022-08-07T18:34:39.311Z,61.65
2022-08-07T18:38:55.245Z,61.73
2022-08-07T18:40:42.292Z,61.51
2022-08-07T18:43:36.682Z,61.68
2022-08-07T18:46:27.236Z,61.62
2022-08-07T18:50:30.132Z,61.68
2022-08-07T18:52:35.096Z,61.60
2022-08-07T18:55:00.571Z,61.47
2022-08-07T18:57:59.433Z,61.44
2022-08-07T19:00:42.324Z,61.60
2022-08-07T19:03:38.104Z,61.67
2022-08-07T19:06:09.191Z,61.48
2022-08-07T19:08:46.333Z,61.88
2022-08-07T19:11:36.378Z,61.76
2022-08-07T19:14:11.816Z,61.58
2022-08-07T19:17:06.988Z,61.71
2022-08-07T19:19:41.336Z,61.74
2022-08-07T19:22:34.122Z,61.77
2022-08-07T19:25:06.369Z,61.99
2022-08-07T19:28:56.783Z,62.22
2022-08-07T19:30:57.161Z,62.19
2022-08-07T19:33:15.311Z,62.15
2022-08-07T19:35:43.689Z,62.50
2022-08-07T19:38:16.150Z,62.51
2022-08-07T19:40:50.488Z,62.91
2022-08-07T19:43:21.694Z,62.65
2022-08-07T19:46:10.152Z,62.81
2022-08-07T19:48:53.593Z,62.86
2022-08-07T19:51:51.269Z,62.92
2022-08-07T19:54:34.344Z,62.88
2022-08-07T19:58:01.512Z,63.22
2022-08-07T19:59:46.627Z,63.26
2022-08-07T20:02:19.692Z,63.44
2022-08-07T20:04:50.388Z,63.63
2022-08-07T20:07:45.537Z,63.47
2022-08-07T20:10:35.995Z,63.58
2022-08-07T20:13:01.047Z,63.76
2022-08-07T20:15:37.297Z,63.76
2022-08-07T20:18:06.266Z,63.69
2022-08-07T20:20:41.675Z,63.66
2022-08-07T20:23:23.087Z,63.75
2022-08-07T20:25:56.024Z,63.76
2022-08-07T20:28:29.475Z,63.84
2022-08-07T20:30:56.554Z,63.88
2022-08-07T20:33:37.733Z,63.82
2022-08-07T20:36:06.380Z,63.80
2022-08-07T20:38:33.906Z,63.72
2022-08-07T20:41:03.767Z,63.78
2022-08-07T20:43:33.069Z,63.62
2022-08-07T20:46:29.014Z,63.62
2022-08-07T20:48:58.207Z,63.93
2022-08-07T20:51:40.659Z,63.73
2022-08-07T20:54:29.250Z,63.71
2022-08-07T20:57:00.383Z,63.71
2022-08-07T21:00:06.702Z,63.57
2022-08-07T21:02:35.746Z,63.38
2022-08-07T21:05:10.300Z,63.36
2022-08-07T21:07:43.628Z,63.37
2022-08-07T21:10:25.309Z,63.08
2022-08-07T21:12:59.264Z,63.25
2022-08-07T21:15:47.962Z,63.19
2022-08-07T21:18:20.743Z,63.09
2022-08-07T21:21:00.099Z,63.38
2022-08-07T21:23:42.849Z,63.02
2022-08-07T21:26:27.081Z,62.88
2022-08-07T21:29:03.060Z,63.14
2022-08-07T21:32:42.604Z,63.02
2022-08-07T21:34:34.134Z,63.47
2022-08-07T21:37:03.796Z,63.50
2022-08-07T21:39:46.757Z,63.16
2022-08-07T21:45:08.368Z,63.01
2022-08-07T21:48:32.518Z,62.94
2022-08-07T21:51:04.875Z,62.73
2022-08-07T21:53:46.491Z,62.85
2022-08-07T21:56:36.459Z,62.81
2022-08-07T21:59:21.212Z,62.67
2022-08-07T22:02:10.849Z,62.80
2022-08-07T22:04:51.138Z,62.60
2022-08-07T22:07:22.777Z,62.76
2022-08-07T22:10:01.146Z,62.60
2022-08-07T22:12:47.137Z,62.56
2022-08-07T22:16:43.305Z,62.65
2022-08-07T22:18:24.282Z,62.67
2022-08-07T22:20:53.767Z,62.51
2022-08-07T22:23:21.703Z,62.68
2022-08-07T22:26:05.930Z,62.65
2022-08-07T22:28:40.919Z,62.75
2022-08-07T22:31:56.319Z,62.76
2022-08-07T22:34:33.169Z,62.69
2022-08-07T22:37:13.398Z,62.60
2022-08-07T22:39:52.605Z,62.63
2022-08-07T22:42:53.889Z,62.81
2022-08-07T22:45:11.039Z,62.63
2022-08-07T22:47:57.783Z,62.55
2022-08-07T22:50:44.387Z,62.60
2022-08-07T22:54:07.559Z,62.43
2022-08-07T22:56:23.762Z,62.58
2022-08-07T22:59:02.527Z,62.70
2022-08-07T23:01:41.965Z,62.64
2022-08-07T23:04:30.127Z,62.53
2022-08-07T23:07:39.730Z,62.56
2022-08-07T23:10:38.014Z,62.60
2022-08-07T23:12:57.991Z,62.53
2022-08-07T23:16:06.796Z,62.58
2022-08-07T23:18:42.501Z,62.29
2022-08-07T23:21:20.992Z,62.42
2022-08-07T23:24:11.431Z,62.29
2022-08-07T23:26:56.173Z,62.45
2022-08-07T23:29:44.036Z,62.35
2022-08-07T23:34:19.366Z,62.19
2022-08-07T23:35:24.287Z,62.28
2022-08-07T23:38:11.537Z,62.12
2022-08-07T23:40:56.608Z,61.75
2022-08-07T23:43:41.594Z,62.01
2022-08-07T23:46:23.682Z,61.74
2022-08-07T23:48:53.471Z,61.89
2022-08-07T23:53:01.231Z,61.99
2022-08-07T23:54:36.143Z,61.76
2022-08-07T23:57:23.563Z,61.85
